Time;durP1;ratioP1;P1;durP2;ratioP2;P2;SDS_P1;SDS_P2;PMS_P1;PMS_P2;Temp;Humidity;BMP_temperature;BMP_pressure;BME280_temperature;BME280_humidity;BME280_pressure;Samples;Min_cycle;Max_cycle;Signal;HPM_P1;HPM_P2
2024/03/16 00:00:45;;;;;;;22.33;13.55;;;;;;;7.24;100.00;92592.69;6302857;22;19995;-73
2024/03/16 00:03:11;;;;;;;20.45;12.98;;;;;;;7.23;100.00;92588.53;6302183;22;20022;-74
2024/03/16 00:05:37;;;;;;;21.13;13.50;;;;;;;7.23;100.00;92585.94;6300036;22;20336;-75
2024/03/16 00:08:03;;;;;;;18.38;12.38;;;;;;;7.21;100.00;92588.78;6302737;22;20011;-74
2024/03/16 00:10:29;;;;;;;22.17;12.77;;;;;;;7.19;100.00;92585.66;6302734;22;20044;-74
2024/03/16 00:12:54;;;;;;;22.02;13.00;;;;;;;7.17;100.00;92582.53;6303212;22;20038;-75
2024/03/16 00:15:20;;;;;;;19.50;11.90;;;;;;;7.19;100.00;92580.44;6303129;22;20428;-75
2024/03/16 00:17:46;;;;;;;17.92;12.55;;;;;;;7.21;100.00;92580.19;6303099;22;20338;-74
2024/03/16 00:20:12;;;;;;;18.95;12.60;;;;;;;7.18;100.00;92578.91;6302225;22;20399;-74
2024/03/16 00:22:38;;;;;;;18.40;12.13;;;;;;;7.13;100.00;92586.69;6301744;22;20015;-74
2024/03/16 00:25:06;;;;;;;20.05;12.07;;;;;;;7.11;100.00;92586.19;6302222;22;20042;-74
2024/03/16 00:27:35;;;;;;;19.75;12.50;;;;;;;7.08;100.00;92591.91;6301270;22;20007;-74
2024/03/16 00:30:01;;;;;;;21.38;12.05;;;;;;;7.04;100.00;92593.47;6302135;22;20074;-75
2024/03/16 00:32:26;;;;;;;18.10;11.70;;;;;;;7.03;100.00;92597.91;6302953;22;20072;-75
2024/03/16 00:34:52;;;;;;;17.73;11.90;;;;;;;7.02;100.00;92592.94;6303097;22;20015;-74
2024/03/16 00:37:18;;;;;;;18.67;12.55;;;;;;;7.03;100.00;92589.31;6303040;22;20011;-74
2024/03/16 00:39:43;;;;;;;19.65;12.27;;;;;;;7.03;100.00;92589.31;6302996;22;20003;-74
2024/03/16 00:42:11;;;;;;;17.52;11.63;;;;;;;7.04;100.00;92590.88;6303178;22;20011;-75
2024/03/16 00:44:37;;;;;;;23.27;12.48;;;;;;;7.03;100.00;92591.94;6303190;22;20323;-74
2024/03/16 00:47:03;;;;;;;19.20;12.18;;;;;;;7.03;100.00;92592.69;6302878;22;20319;-74
2024/03/16 00:49:28;;;;;;;18.73;11.60;;;;;;;7.04;100.00;92593.47;6249851;22;20460;-74
2024/03/16 00:51:54;;;;;;;19.70;12.80;;;;;;;7.07;100.00;92595.56;6302917;22;20072;-74
2024/03/16 00:54:19;;;;;;;20.55;12.65;;;;;;;7.08;100.00;92595.28;6302771;22;20015;-74
2024/03/16 00:56:50;;;;;;;21.38;12.95;;;;;;;7.12;100.00;92597.41;6302993;22;20010;-74
2024/03/16 00:59:15;;;;;;;21.17;13.60;;;;;;;7.13;100.00;92594.50;6302994;22;20090;-73
2024/03/16 01:01:41;;;;;;;19.85;12.43;;;;;;;7.16;100.00;92588.00;6302900;22;20098;-75
2024/03/16 01:04:07;;;;;;;20.10;13.88;;;;;;;7.17;100.00;92592.94;6275589;22;20372;-75
2024/03/16 01:06:33;;;;;;;22.15;13.60;;;;;;;7.17;100.00;92594.78;6276080;22;20015;-75
2024/03/16 01:08:59;;;;;;;21.67;12.63;;;;;;;7.19;100.00;92600.50;6302991;22;20044;-75
2024/03/16 01:11:24;;;;;;;19.20;12.73;;;;;;;7.17;100.00;92600.75;6277289;22;20018;-73
2024/03/16 01:13:53;;;;;;;19.92;13.13;;;;;;;7.18;100.00;92602.34;6305849;22;20015;-75
2024/03/16 01:16:19;;;;;;;20.35;12.80;;;;;;;7.18;100.00;92602.34;6304703;22;20015;-74
2024/03/16 01:18:44;;;;;;;22.02;13.82;;;;;;;7.20;100.00;92600.22;6304467;22;20479;-75
2024/03/16 01:21:11;;;;;;;22.83;12.93;;;;;;;7.19;100.00;92595.31;6304846;22;20011;-74
2024/03/16 01:23:37;;;;;;;18.88;13.02;;;;;;;7.21;100.00;92607.00;6304911;22;20019;-75
2024/03/16 01:26:07;;;;;;;21.50;13.40;;;;;;;7.20;100.00;92609.88;6304607;22;20349;-74
2024/03/16 01:28:33;;;;;;;17.70;12.80;;;;;;;7.23;100.00;92612.75;6304657;22;20094;-75
2024/03/16 01:30:59;;;;;;;19.13;13.02;;;;;;;7.21;100.00;92604.41;6304529;22;19999;-75
2024/03/16 01:33:25;;;;;;;20.70;13.30;;;;;;;7.25;100.00;92600.25;6304680;22;20356;-75
2024/03/16 01:35:52;;;;;;;19.55;12.52;;;;;;;7.28;100.00;92599.72;6304295;22;20019;-75
2024/03/16 01:38:18;;;;;;;24.52;13.52;;;;;;;7.35;100.00;92593.47;6304414;22;20064;-74
2024/03/16 01:40:44;;;;;;;20.92;13.85;;;;;;;7.42;100.00;92589.53;6304334;22;20344;-74
2024/03/16 01:43:12;;;;;;;21.40;14.40;;;;;;;7.47;100.00;92591.34;6304562;22;20007;-74
2024/03/16 01:45:39;;;;;;;19.75;13.52;;;;;;;7.54;100.00;92591.84;6304737;22;20015;-75
2024/03/16 01:48:05;;;;;;;19.27;13.68;;;;;;;7.49;100.00;92590.03;6304950;22;20744;-75
2024/03/16 01:50:30;;;;;;;22.60;13.68;;;;;;;7.45;100.00;92577.78;6304104;22;20015;-73
2024/03/16 01:52:57;;;;;;;21.55;13.35;;;;;;;7.38;100.00;92579.91;6304464;22;20397;-75
2024/03/16 01:55:23;;;;;;;22.02;13.60;;;;;;;7.28;100.00;92584.09;6304768;22;20551;-75
2024/03/16 01:57:52;;;;;;;22.55;14.90;;;;;;;7.21;100.00;92585.41;6252272;22;20011;-75
2024/03/16 02:00:18;;;;;;;19.83;13.60;;;;;;;7.15;100.00;92574.19;6277015;22;20475;-75
2024/03/16 02:02:43;;;;;;;20.63;12.25;;;;;;;7.10;100.00;92569.00;6277330;22;20815;-74
2024/03/16 02:05:09;;;;;;;16.52;11.60;;;;;;;7.10;100.00;92569.00;6304180;22;20011;-74
2024/03/16 02:07:39;;;;;;;16.73;11.13;;;;;;;7.07;100.00;92575.53;6276589;22;20019;-74
2024/03/16 02:10:08;;;;;;;18.67;11.05;;;;;;;7.03;100.00;92577.09;6227065;22;20122;-74
2024/03/16 02:12:34;;;;;;;19.67;12.52;;;;;;;6.97;100.00;92572.13;6304190;22;20407;-75
2024/03/16 02:15:00;;;;;;;20.85;12.90;;;;;;;6.93;100.00;92569.28;6276707;22;20309;-74
2024/03/16 02:17:26;;;;;;;19.35;12.10;;;;;;;6.90;100.00;92566.41;6304109;22;20021;-74
2024/03/16 02:19:51;;;;;;;18.95;12.23;;;;;;;6.86;100.00;92571.34;6303339;22;20047;-72
2024/03/16 02:22:19;;;;;;;19.67;11.07;;;;;;;6.82;100.00;92570.31;6303851;22;20016;-75
2024/03/16 02:24:45;;;;;;;17.52;11.13;;;;;;;6.80;100.00;92568.00;6304277;22;20240;-75
2024/03/16 02:27:11;;;;;;;18.02;11.32;;;;;;;6.77;100.00;92570.31;6303925;22;20022;-75
2024/03/16 02:29:37;;;;;;;14.90;10.10;;;;;;;6.75;100.00;92575.00;6304121;22;20336;-75
2024/03/16 02:32:06;;;;;;;20.00;10.20;;;;;;;6.70;100.00;92570.56;6304111;22;20098;-74
2024/03/16 02:34:33;;;;;;;16.27;11.02;;;;;;;6.66;100.00;92572.13;6304140;22;20411;-74
2024/03/16 02:36:59;;;;;;;15.73;10.48;;;;;;;6.70;100.00;92567.97;6303597;22;20022;-75
2024/03/16 02:39:25;;;;;;;13.45;9.45;;;;;;;6.64;100.00;92559.41;6304109;22;20432;-75
2024/03/16 02:41:52;;;;;;;16.08;8.93;;;;;;;6.59;100.00;92556.78;6303947;22;20015;-74
2024/03/16 02:44:19;;;;;;;14.95;9.35;;;;;;;6.56;100.00;92548.72;6303920;22;20011;-75
2024/03/16 02:46:45;;;;;;;16.33;10.10;;;;;;;6.52;100.00;92551.06;6303858;22;20004;-75
2024/03/16 02:49:10;;;;;;;17.13;10.50;;;;;;;6.47;100.00;92551.06;6276517;22;20015;-74
2024/03/16 02:51:36;;;;;;;14.45;8.93;;;;;;;6.47;100.00;92558.84;6303813;22;20022;-75
2024/03/16 02:54:04;;;;;;;13.32;9.35;;;;;;;6.44;100.00;92554.97;6303756;22;20310;-75
2024/03/16 02:56:30;;;;;;;14.55;9.10;;;;;;;6.41;100.00;92550.25;6304000;22;20357;-74
2024/03/16 02:58:56;;;;;;;14.30;8.60;;;;;;;6.41;100.00;92555.47;6276233;22;20090;-75
2024/03/16 03:01:21;;;;;;;14.45;8.55;;;;;;;6.38;100.00;92553.38;6276488;22;20377;-76
2024/03/16 03:03:47;;;;;;;14.32;8.80;;;;;;;6.32;100.00;92553.63;6303503;22;20003;-75
2024/03/16 03:06:13;;;;;;;14.40;8.63;;;;;;;6.28;100.00;92558.56;6303807;22;20011;-74
2024/03/16 03:08:39;;;;;;;15.63;8.73;;;;;;;6.21;100.00;92553.63;6303407;22;20018;-75
2024/03/16 03:11:04;;;;;;;17.42;8.48;;;;;;;6.18;100.00;92553.34;6303496;22;20014;-75
2024/03/16 03:13:30;;;;;;;17.45;9.30;;;;;;;6.13;100.00;92545.56;6303718;22;20088;-74
2024/03/16 03:15:56;;;;;;;14.27;9.98;;;;;;;6.10;100.00;92551.25;6276017;22;20014;-74
2024/03/16 03:18:24;;;;;;;15.10;9.38;;;;;;;6.09;100.00;92545.28;6303893;22;20023;-73
2024/03/16 03:20:53;;;;;;;15.60;9.82;;;;;;;6.08;100.00;92530.72;6303225;22;20007;-75
2024/03/16 03:23:18;;;;;;;16.58;10.20;;;;;;;6.09;100.00;92537.47;6303549;22;20015;-73
2024/03/16 03:25:46;;;;;;;17.25;10.43;;;;;;;6.12;100.00;92536.16;6303624;22;20015;-75
2024/03/16 03:28:11;;;;;;;17.65;9.68;;;;;;;6.12;100.00;92536.16;6250261;22;20519;-75
2024/03/16 03:30:36;;;;;;;13.50;8.30;;;;;;;6.25;100.00;92535.69;6303114;22;20007;-74
2024/03/16 03:33:02;;;;;;;14.95;9.48;;;;;;;6.40;100.00;92553.91;6302920;22;20011;-75
2024/03/16 03:35:28;;;;;;;17.98;9.98;;;;;;;6.36;100.00;92547.66;6303250;22;20011;-74
2024/03/16 03:37:54;;;;;;;16.17;10.88;;;;;;;6.32;100.00;92551.81;6275890;22;20094;-75
2024/03/16 03:40:19;;;;;;;21.42;10.57;;;;;;;6.30;100.00;92548.69;6302975;22;20060;-73
2024/03/16 03:42:48;;;;;;;16.55;11.00;;;;;;;6.32;100.00;92557.00;6303325;22;20011;-75
2024/03/16 03:45:37;;;;;;;13.50;9.07;;;;;;;6.29;100.00;92561.97;6302809;22;20336;-74
2024/03/16 03:48:14;;;;;;;14.45;9.15;;;;;;;6.17;100.00;92551.78;6303116;22;20414;-75
2024/03/16 03:50:43;;;;;;;12.82;9.02;;;;;;;6.09;100.00;92562.69;6302845;22;20018;-75
2024/03/16 03:53:08;;;;;;;15.60;8.63;;;;;;;5.98;100.00;92570.44;6303102;22;20073;-75
2024/03/16 03:55:34;;;;;;;13.73;8.75;;;;;;;5.90;100.00;92565.72;6302917;22;20011;-75
2024/03/16 03:58:02;;;;;;;11.75;6.43;;;;;;;5.83;100.00;92575.53;6303178;22;20352;-75
2024/03/16 04:00:27;;;;;;;9.27;6.65;;;;;;;5.77;100.00;92572.16;6302995;22;19995;-74
2024/03/16 04:02:53;;;;;;;12.80;6.13;;;;;;;5.74;100.00;92571.88;6303187;22;20022;-75
2024/03/16 04:05:18;;;;;;;13.73;6.88;;;;;;;5.71;100.00;92567.19;6303195;22;20015;-75
2024/03/16 04:07:44;;;;;;;8.40;5.80;;;;;;;5.70;100.00;92563.84;6275594;22;19999;-75
2024/03/16 04:10:09;;;;;;;10.95;5.47;;;;;;;5.70;100.00;92568.25;6302402;22;20023;-73
2024/03/16 04:12:35;;;;;;;10.88;6.60;;;;;;;5.82;100.00;92564.38;6302943;22;20015;-75
2024/03/16 04:15:01;;;;;;;11.95;6.57;;;;;;;5.91;100.00;92561.31;6303325;22;20027;-74
2024/03/16 04:17:27;;;;;;;7.95;5.13;;;;;;;5.91;100.00;92562.06;6303090;22;20090;-74
2024/03/16 04:19:52;;;;;;;8.32;4.47;;;;;;;5.91;100.00;92561.31;6302405;22;20015;-74
2024/03/16 04:22:18;;;;;;;7.45;4.18;;;;;;;5.90;100.00;92560.53;6302343;22;20352;-75
2024/03/16 04:24:44;;;;;;;7.55;4.60;;;;;;;5.92;100.00;92570.66;6275271;22;20364;-74
2024/03/16 04:27:09;;;;;;;13.15;6.82;;;;;;;5.95;100.00;92570.97;6302864;22;20526;-74
2024/03/16 04:29:35;;;;;;;8.18;5.15;;;;;;;5.97;100.00;92563.69;6302725;22;20350;-74
2024/03/16 04:32:00;;;;;;;7.15;4.55;;;;;;;5.96;100.00;92564.72;6302807;22;20003;-75
2024/03/16 04:34:26;;;;;;;12.88;5.65;;;;;;;5.97;100.00;92579.28;6275374;22;20337;-74
2024/03/16 04:36:52;;;;;;;12.50;6.22;;;;;;;5.97;100.00;92589.69;6302668;22;20094;-75
2024/03/16 04:39:22;;;;;;;11.63;7.90;;;;;;;6.02;100.00;92587.09;6302748;22;19995;-75
2024/03/16 04:41:50;;;;;;;10.63;6.47;;;;;;;6.03;100.00;92588.66;6302569;22;20500;-74
2024/03/16 04:44:16;;;;;;;15.38;8.40;;;;;;;6.03;100.00;92580.88;6304802;22;20074;-75
2024/03/16 04:46:41;;;;;;;17.00;8.52;;;;;;;6.05;100.00;92583.19;6305040;22;20372;-75
2024/03/16 04:49:07;;;;;;;17.10;9.10;;;;;;;6.04;100.00;92582.41;6305281;22;20449;-75
2024/03/16 04:51:33;;;;;;;19.35;11.35;;;;;;;6.03;100.00;92575.69;6304642;22;20053;-72
2024/03/16 04:54:02;;;;;;;18.48;11.40;;;;;;;6.04;100.00;92572.03;6304566;22;20006;-74
2024/03/16 04:56:30;;;;;;;18.27;12.07;;;;;;;6.07;100.00;92572.56;6305050;22;20007;-75
2024/03/16 04:58:56;;;;;;;17.65;11.90;;;;;;;6.10;100.00;92569.44;6304570;22;20019;-75
2024/03/16 05:01:21;;;;;;;20.27;12.85;;;;;;;6.11;100.00;92573.63;6304827;22;20087;-75
2024/03/16 05:03:47;;;;;;;19.83;12.07;;;;;;;6.08;100.00;92579.31;6304727;22;20003;-75
2024/03/16 05:06:14;;;;;;;19.05;11.18;;;;;;;6.10;100.00;92579.81;6304728;22;20065;-75
2024/03/16 05:08:40;;;;;;;16.95;11.13;;;;;;;6.10;100.00;92585.03;6277615;22;20344;-75
2024/03/16 05:11:06;;;;;;;18.17;10.30;;;;;;;6.03;100.00;92583.47;6277394;22;20009;-75
2024/03/16 05:13:34;;;;;;;15.68;10.98;;;;;;;6.00;100.00;92581.38;6304574;22;20011;-74
2024/03/16 05:16:09;;;;;;;18.73;11.05;;;;;;;5.95;100.00;92581.34;6304601;22;20060;-75
2024/03/16 05:18:34;;;;;;;17.17;10.75;;;;;;;5.91;100.00;92588.06;6304129;22;20023;-74
2024/03/16 05:21:00;;;;;;;15.20;9.57;;;;;;;5.85;100.00;92589.06;6304550;22;20003;-75
2024/03/16 05:23:26;;;;;;;15.68;8.93;;;;;;;5.77;100.00;92585.16;6304423;22;20464;-74
2024/03/16 05:25:51;;;;;;;12.70;8.20;;;;;;;5.72;100.00;92586.94;6304242;22;20103;-75
2024/03/16 05:28:17;;;;;;;12.85;7.28;;;;;;;5.68;100.00;92588.50;6304539;22;20140;-75
2024/03/16 05:30:42;;;;;;;17.70;8.88;;;;;;;5.67;100.00;92597.31;6304350;22;20411;-75
2024/03/16 05:33:08;;;;;;;12.65;8.65;;;;;;;5.66;100.00;92586.16;6304244;22;20022;-74
2024/03/16 05:35:33;;;;;;;12.85;8.13;;;;;;;5.65;100.00;92581.97;6304831;22;20027;-76
2024/03/16 05:37:59;;;;;;;17.98;8.90;;;;;;;5.60;100.00;92585.31;6304674;22;20057;-75
2024/03/16 05:40:24;;;;;;;14.80;9.88;;;;;;;5.59;100.00;92586.38;6304418;22;20049;-75
2024/03/16 05:42:50;;;;;;;25.25;11.10;;;;;;;5.59;100.00;92578.56;6304483;22;20003;-74
2024/03/16 05:45:16;;;;;;;19.85;11.27;;;;;;;5.71;100.00;92580.97;6304516;22;20352;-77
2024/03/16 05:47:41;;;;;;;15.20;10.40;;;;;;;5.90;100.00;92589.09;6277060;22;20014;-75
2024/03/16 05:50:08;;;;;;;16.50;10.40;;;;;;;5.89;100.00;92600.53;6277109;22;20034;-75
2024/03/16 05:52:35;;;;;;;19.98;10.43;;;;;;;5.84;100.00;92609.06;6304432;22;20064;-75
2024/03/16 05:55:00;;;;;;;17.10;10.27;;;;;;;5.82;100.00;92605.16;6276561;22;20039;-75
2024/03/16 05:57:26;;;;;;;13.65;9.20;;;;;;;5.79;100.00;92623.88;6304159;22;20006;-75
2024/03/16 05:59:52;;;;;;;16.00;8.85;;;;;;;5.78;100.00;92625.66;6303298;22;20445;-73
2024/03/16 06:02:18;;;;;;;14.40;8.15;;;;;;;5.75;100.00;92628.00;6303265;22;20030;-75
2024/03/16 06:04:44;;;;;;;13.43;7.28;;;;;;;5.74;100.00;92623.81;6303166;22;20440;-73
2024/03/16 06:07:09;;;;;;;11.80;6.45;;;;;;;5.72;100.00;92626.69;6303467;22;20022;-75
2024/03/16 06:09:35;;;;;;;13.82;6.32;;;;;;;5.70;100.00;92630.59;6303441;22;20003;-74
2024/03/16 06:12:01;;;;;;;8.20;5.63;;;;;;;5.71;100.00;92638.09;6302929;22;20011;-75
2024/03/16 06:14:26;;;;;;;9.65;5.53;;;;;;;5.76;100.00;92645.16;6303404;22;20019;-75
2024/03/16 06:16:52;;;;;;;9.65;5.40;;;;;;;6.02;100.00;92646.09;6303531;22;20006;-74
2024/03/16 06:19:17;;;;;;;8.30;5.03;;;;;;;7.50;100.00;92648.13;6302687;22;20099;-76
2024/03/16 06:21:43;;;;;;;9.18;4.90;;;;;;;8.60;100.00;92643.88;6303118;22;20386;-75
2024/03/16 06:24:09;;;;;;;8.95;4.97;;;;;;;9.73;100.00;92637.81;6303581;22;20015;-74
2024/03/16 06:26:37;;;;;;;10.32;5.32;;;;;;;10.79;100.00;92636.88;6303399;22;20510;-75
2024/03/16 06:29:08;;;;;;;9.88;5.32;;;;;;;11.59;100.00;92633.25;6302559;22;20015;-75
2024/03/16 06:31:38;;;;;;;8.25;5.13;;;;;;;12.34;100.00;92638.50;6275497;22;20110;-74
2024/03/16 06:34:06;;;;;;;10.23;5.13;;;;;;;13.09;100.00;92635.34;6305333;22;20030;-76
2024/03/16 06:36:36;;;;;;;11.70;6.22;;;;;;;13.91;100.00;92630.78;6305844;22;20014;-77
2024/03/16 06:39:06;;;;;;;10.68;5.18;;;;;;;14.58;100.00;92644.84;6306308;22;20015;-77
2024/03/16 06:41:31;;;;;;;8.68;5.38;;;;;;;15.40;100.00;92645.84;6307728;22;20045;-74
2024/03/16 06:43:57;;;;;;;12.02;5.80;;;;;;;15.82;89.91;92640.06;6306742;22;20367;-77
2024/03/16 06:46:23;;;;;;;9.00;5.70;;;;;;;16.38;90.65;92643.44;6306782;22;20011;-78
2024/03/16 06:48:49;;;;;;;7.43;5.18;;;;;;;16.74;82.97;92644.06;6305479;22;20349;-77
2024/03/16 06:51:15;;;;;;;8.60;5.10;;;;;;;15.80;82.31;92645.66;6278110;22;20037;-77
2024/03/16 06:53:40;;;;;;;8.93;4.85;;;;;;;15.44;85.89;92656.53;6307166;22;20742;-76
2024/03/16 06:56:07;;;;;;;7.85;4.97;;;;;;;15.10;88.17;92660.72;6305980;22;20015;-77
2024/03/16 06:58:33;;;;;;;8.15;4.63;;;;;;;15.71;88.14;92659.97;6305831;22;20379;-78
2024/03/16 07:00:59;;;;;;;10.38;4.60;;;;;;;15.72;87.07;92648.31;6306484;22;20023;-76
2024/03/16 07:03:24;;;;;;;6.38;3.40;;;;;;;16.56;74.94;92651.28;6279947;22;20042;-78
2024/03/16 07:05:50;;;;;;;6.72;3.60;;;;;;;16.82;71.79;92646.69;6307015;22;20022;-78
2024/03/16 07:08:17;;;;;;;7.15;4.22;;;;;;;17.22;72.80;92656.03;6306787;22;19999;-77
2024/03/16 07:10:45;;;;;;;9.35;4.40;;;;;;;17.77;72.81;92659.50;6306037;22;20011;-78
2024/03/16 07:13:11;;;;;;;7.35;4.70;;;;;;;18.35;68.03;92655.03;6304280;22;20019;-77
2024/03/16 07:15:37;;;;;;;8.02;4.80;;;;;;;18.40;66.30;92657.44;6306385;22;20094;-78
2024/03/16 07:18:03;;;;;;;7.75;4.47;;;;;;;18.18;73.05;92655.97;6306793;22;20348;-79
2024/03/16 07:20:30;;;;;;;6.90;4.32;;;;;;;18.59;66.80;92658.78;6304196;22;20003;-76
2024/03/16 07:22:56;;;;;;;7.65;4.97;;;;;;;19.42;65.00;92657.47;6305281;22;20054;-78
2024/03/16 07:25:21;;;;;;;6.13;4.45;;;;;;;19.59;62.56;92667.06;6279047;22;20015;-80
2024/03/16 07:27:48;;;;;;;9.48;4.70;;;;;;;19.90;60.22;92662.97;6306669;22;20069;-80
2024/03/16 07:30:13;;;;;;;6.68;4.53;;;;;;;19.61;59.29;92656.88;6278298;22;20305;-77
2024/03/16 07:32:39;;;;;;;7.53;5.10;;;;;;;18.86;63.80;92658.13;6303041;22;20140;-77
2024/03/16 07:35:08;;;;;;;7.50;5.53;;;;;;;16.67;75.53;92660.41;6304746;22;20049;-75
2024/03/16 07:37:34;;;;;;;8.05;5.55;;;;;;;15.57;91.31;92663.50;6305260;22;20007;-76
2024/03/16 07:39:59;;;;;;;10.77;5.45;;;;;;;15.74;91.57;92659.34;6304425;22;20011;-78
2024/03/16 07:42:25;;;;;;;8.70;4.85;;;;;;;16.19;86.55;92672.13;6303475;22;20023;-77
2024/03/16 07:44:50;;;;;;;7.43;4.30;;;;;;;16.43;82.91;92672.31;6250571;22;20015;-78
2024/03/16 07:47:16;;;;;;;7.43;4.85;;;;;;;16.14;79.25;92680.19;6275616;22;20003;-76
2024/03/16 07:49:41;;;;;;;8.32;5.10;;;;;;;15.67;84.30;92677.47;6275980;22;20086;-77
2024/03/16 07:52:07;;;;;;;8.50;4.68;;;;;;;15.85;84.18;92679.03;6302596;22;20023;-79
2024/03/16 07:54:35;;;;;;;7.28;4.53;;;;;;;14.97;93.02;92682.72;6304030;22;20072;-77
2024/03/16 07:57:01;;;;;;;8.35;4.95;;;;;;;14.84;90.62;92689.69;6275966;22;19995;-78
2024/03/16 07:59:27;;;;;;;8.88;5.10;;;;;;;14.60;95.69;92692.72;6304337;22;20081;-79
2024/03/16 08:01:52;;;;;;;8.15;5.10;;;;;;;15.31;90.61;92697.81;6305943;22;20011;-78
2024/03/16 08:04:18;;;;;;;8.52;4.53;;;;;;;15.79;85.58;92696.13;6304576;22;20030;-78
2024/03/16 08:06:43;;;;;;;8.40;4.82;;;;;;;15.96;84.20;92690.81;6306096;22;20019;-77
2024/03/16 08:09:11;;;;;;;7.85;4.47;;;;;;;16.28;79.98;92695.84;6304184;22;20105;-75
2024/03/16 08:11:38;;;;;;;10.13;4.60;;;;;;;16.04;77.67;92686.59;6277359;22;20006;-75
2024/03/16 08:14:05;;;;;;;9.18;4.07;;;;;;;16.28;77.67;92696.63;6276187;22;20060;-78
2024/03/16 08:16:31;;;;;;;7.00;4.78;;;;;;;15.67;82.71;92695.94;6301176;22;20511;-76
2024/03/16 08:18:56;;;;;;;9.10;4.20;;;;;;;15.03;87.24;92686.78;6299847;22;20007;-77
2024/03/16 08:21:22;;;;;;;8.70;4.53;;;;;;;14.28;91.08;92693.81;6247605;22;20058;-78
2024/03/16 08:23:47;;;;;;;8.30;4.50;;;;;;;13.75;97.10;92698.03;6301348;22;20011;-77
2024/03/16 08:26:13;;;;;;;8.15;4.57;;;;;;;13.77;98.84;92695.88;6246840;22;20098;-77
2024/03/16 08:28:39;;;;;;;11.25;4.40;;;;;;;13.82;99.44;92700.22;6300614;22;20018;-76
2024/03/16 08:31:05;;;;;;;7.00;3.80;;;;;;;14.32;88.25;92705.28;6301760;22;20015;-77
2024/03/16 08:33:31;;;;;;;6.82;4.20;;;;;;;14.08;92.22;92697.75;6302418;22;20472;-74
2024/03/16 08:35:57;;;;;;;6.18;3.28;;;;;;;13.91;95.85;92699.19;6304073;22;20076;-77
2024/03/16 08:38:24;;;;;;;7.63;4.35;;;;;;;13.59;97.03;92704.72;6303477;22;20011;-77
2024/03/16 08:40:49;;;;;;;5.47;3.60;;;;;;;13.57;98.52;92702.38;6303055;22;20045;-77
2024/03/16 08:43:15;;;;;;;6.20;3.60;;;;;;;13.66;97.26;92699.81;6303030;22;20007;-76
2024/03/16 08:45:40;;;;;;;7.35;4.25;;;;;;;13.66;97.22;92697.97;6303612;22;20026;-78
2024/03/16 08:48:06;;;;;;;6.65;3.85;;;;;;;14.04;97.07;92699.44;6271104;22;20604;-76
2024/03/16 08:50:32;;;;;;;5.88;3.95;;;;;;;14.37;92.72;92707.81;6297307;22;20003;-76
2024/03/16 08:52:58;;;;;;;7.63;3.88;;;;;;;14.19;92.66;92706.19;6296303;22;20084;-76
2024/03/16 08:55:25;;;;;;;6.25;3.30;;;;;;;13.72;94.28;92714.41;6296916;22;20101;-76
2024/03/16 08:57:51;;;;;;;7.93;3.55;;;;;;;13.37;96.09;92703.63;6296867;22;20007;-77
2024/03/16 09:00:17;;;;;;;5.85;3.45;;;;;;;13.73;93.94;92705.44;6295886;22;20327;-76
2024/03/16 09:02:42;;;;;;;9.73;4.20;;;;;;;13.77;94.62;92706.41;6296389;22;20446;-77
2024/03/16 09:05:08;;;;;;;6.38;3.47;;;;;;;14.22;93.40;92710.81;6295336;22;20443;-77
2024/03/16 09:07:39;;;;;;;6.63;4.25;;;;;;;14.58;88.81;92723.88;6294859;22;20800;-77
2024/03/16 09:10:12;;;;;;;4.20;2.08;;;;;;;14.70;85.71;92710.91;6294429;22;20015;-76
2024/03/16 09:12:38;;;;;;;5.80;3.00;;;;;;;14.35;87.68;92708.09;6296488;22;20015;-74
2024/03/16 09:15:06;;;;;;;6.13;3.45;;;;;;;13.85;92.55;92712.81;6296296;22;20007;-76
2024/03/16 09:17:36;;;;;;;5.28;3.15;;;;;;;13.88;93.29;92705.06;6296301;22;20019;-74
2024/03/16 09:20:07;;;;;;;9.00;3.47;;;;;;;14.21;90.59;92704.78;6295372;22;20014;-76
2024/03/16 09:22:37;;;;;;;6.50;3.70;;;;;;;13.70;89.41;92706.81;6299761;22;20086;-75
2024/03/16 09:25:07;;;;;;;6.82;3.30;;;;;;;14.09;89.01;92707.97;6301173;22;20068;-77
2024/03/16 09:27:33;;;;;;;6.15;3.70;;;;;;;14.28;92.15;92707.75;6275940;22;20012;-77
2024/03/16 09:29:59;;;;;;;6.03;3.20;;;;;;;14.53;87.15;92711.56;6297761;22;20010;-77
2024/03/16 09:32:24;;;;;;;6.25;3.13;;;;;;;14.70;87.33;92710.09;6299984;22;20293;-77
2024/03/16 09:34:51;;;;;;;5.50;2.65;;;;;;;14.93;84.46;92708.16;6273070;22;20022;-75
2024/03/16 09:37:16;;;;;;;6.75;3.28;;;;;;;14.99;84.30;92714.81;6304111;22;20041;-75
2024/03/16 09:39:43;;;;;;;5.20;2.95;;;;;;;15.15;84.20;92723.06;6299522;22;20008;-74
2024/03/16 09:42:10;;;;;;;7.78;3.30;;;;;;;15.65;77.01;92714.75;6298534;22;20015;-77
2024/03/16 09:44:35;;;;;;;5.50;2.83;;;;;;;15.68;73.84;92715.97;6296196;22;20015;-77
2024/03/16 09:47:03;;;;;;;5.15;2.63;;;;;;;15.51;76.51;92722.03;6297257;22;19995;-76
2024/03/16 09:49:30;;;;;;;5.72;3.05;;;;;;;15.64;73.79;92720.31;6296518;22;20003;-76
2024/03/16 09:51:59;;;;;;;5.20;2.97;;;;;;;16.11;73.22;92723.84;6294704;22;20015;-75
2024/03/16 09:54:28;;;;;;;6.45;3.20;;;;;;;15.70;74.28;92716.44;6294895;22;20007;-76
2024/03/16 09:56:54;;;;;;;5.22;2.55;;;;;;;15.75;74.59;92717.06;6273819;22;20106;-78
2024/03/16 09:59:21;;;;;;;5.90;2.92;;;;;;;15.81;74.33;92725.63;6302722;22;20129;-75
2024/03/16 10:01:47;;;;;;;5.88;2.97;;;;;;;15.51;75.49;92730.69;6305794;22;20011;-78
2024/03/16 10:04:13;;;;;;;5.63;2.72;;;;;;;15.55;72.13;92729.00;6304881;22;20449;-77
2024/03/16 10:06:39;;;;;;;4.55;2.70;;;;;;;15.84;71.05;92727.63;6306385;22;20090;-76
2024/03/16 10:09:15;;;;;;;3.78;2.22;;;;;;;16.26;70.05;92716.50;6305163;22;20078;-77
2024/03/16 10:11:43;;;;;;;4.38;2.50;;;;;;;16.24;72.01;92722.13;6302901;22;20007;-77
2024/03/16 10:14:10;;;;;;;5.57;2.88;;;;;;;16.47;69.59;92720.03;6303507;22;20058;-76
2024/03/16 10:16:40;;;;;;;6.65;2.47;;;;;;;16.20;64.74;92719.31;6303732;22;20044;-81
2024/03/16 10:19:09;;;;;;;5.05;2.90;;;;;;;16.01;70.37;92719.69;6303669;22;20319;-77
2024/03/16 10:21:35;;;;;;;4.22;2.28;;;;;;;16.40;71.69;92714.47;6302084;22;20011;-77
2024/03/16 10:24:01;;;;;;;6.93;2.72;;;;;;;15.93;75.93;92722.34;6303090;22;20173;-78
2024/03/16 10:26:33;;;;;;;5.20;2.70;;;;;;;15.77;74.41;92714.13;6303949;22;20090;-77
2024/03/16 10:29:01;;;;;;;4.70;2.60;;;;;;;15.70;81.78;92719.09;6305776;22;20022;-77
2024/03/16 10:31:29;;;;;;;4.50;2.80;;;;;;;15.53;83.82;92720.63;6304678;22;20015;-78
2024/03/16 10:34:00;;;;;;;5.60;2.90;;;;;;;15.28;83.10;92722.16;6306245;22;20030;-78
2024/03/16 10:36:26;;;;;;;6.35;2.90;;;;;;;15.81;80.64;92721.13;6277275;22;20098;-77
2024/03/16 10:38:55;;;;;;;4.60;2.78;;;;;;;16.13;75.86;92716.41;6304257;22;20022;-77
2024/03/16 10:41:21;;;;;;;5.60;2.80;;;;;;;15.61;76.42;92722.50;6303965;22;20019;-78
2024/03/16 10:43:47;;;;;;;6.35;2.55;;;;;;;15.47;78.33;92721.09;6304468;22;20336;-77
2024/03/16 10:46:15;;;;;;;6.80;2.65;;;;;;;15.52;75.97;92729.63;6306402;22;20042;-78
2024/03/16 10:48:45;;;;;;;5.18;2.55;;;;;;;15.34;80.16;92744.66;6304345;22;20011;-77
2024/03/16 10:51:17;;;;;;;5.20;2.72;;;;;;;15.31;78.34;92740.03;6304270;22;20003;-77
2024/03/16 10:53:45;;;;;;;;;;;;;;;15.59;75.42;92729.16;6304040;22;20514;-78
2024/03/16 10:56:12;;;;;;;5.85;2.40;;;;;;;15.97;73.96;92726.69;6304549;22;20006;-78
2024/03/16 10:58:37;;;;;;;4.82;2.58;;;;;;;16.17;73.29;92719.19;6304486;22;20384;-77
2024/03/16 11:01:08;;;;;;;4.07;2.28;;;;;;;16.02;73.42;92731.78;6302978;22;20012;-77
2024/03/16 11:03:39;;;;;;;5.47;2.78;;;;;;;15.74;73.50;92736.66;6301061;22;20026;-76
2024/03/16 11:06:10;;;;;;;4.50;2.50;;;;;;;15.72;74.20;92738.06;6273451;22;20019;-76
2024/03/16 11:08:44;;;;;;;5.88;2.20;;;;;;;15.54;70.98;92737.25;6223406;22;20019;-77
2024/03/16 11:11:18;;;;;;;4.88;2.30;;;;;;;15.77;72.18;92729.97;6300860;22;20026;-77
2024/03/16 11:13:56;;;;;;;4.40;2.28;;;;;;;15.92;70.65;92733.97;6300907;22;20071;-77
2024/03/16 11:16:33;;;;;;;5.38;2.55;;;;;;;15.97;71.75;92723.28;6300208;22;20007;-75
2024/03/16 11:19:07;;;;;;;4.53;2.45;;;;;;;16.25;71.58;92718.38;6301661;22;20399;-79
2024/03/16 11:21:38;;;;;;;3.90;2.30;;;;;;;16.36;69.09;92719.59;6302038;22;20022;-77
2024/03/16 11:24:13;;;;;;;3.90;2.33;;;;;;;16.10;71.62;92716.25;6300174;22;20075;-78